sensor_id;sensor_type;location;lat;lon;timestamp;P1;durP1;ratioP1;P2;durP2;ratioP2
7531;SDS011;3807;49.030;8.714;2023-07-09T00:01:06;6.20;;;3.53;;
7531;SDS011;3807;49.030;8.714;2023-07-09T00:03:37;7.60;;;3.45;;
7531;SDS011;3807;49.030;8.714;2023-07-09T00:06:02;4.10;;;3.33;;
7531;SDS011;3807;49.030;8.714;2023-07-09T00:08:28;5.62;;;3.50;;
7531;SDS011;3807;49.030;8.714;2023-07-09T00:10:55;5.80;;;3.40;;
7531;SDS011;3807;49.030;8.714;2023-07-09T00:13:22;5.93;;;2.78;;
7531;SDS011;3807;49.030;8.714;2023-07-09T00:15:50;4.30;;;3.30;;
7531;SDS011;3807;49.030;8.714;2023-07-09T00:18:17;6.87;;;3.60;;
7531;SDS011;3807;49.030;8.714;2023-07-09T00:20:43;4.32;;;3.17;;
7531;SDS011;3807;49.030;8.714;2023-07-09T00:23:11;7.53;;;3.20;;
7531;SDS011;3807;49.030;8.714;2023-07-09T00:25:39;10.38;;;3.28;;
7531;SDS011;3807;49.030;8.714;2023-07-09T00:28:12;8.38;;;3.30;;
7531;SDS011;3807;49.030;8.714;2023-07-09T00:30:46;5.90;;;3.53;;
7531;SDS011;3807;49.030;8.714;2023-07-09T00:33:13;5.20;;;3.22;;
7531;SDS011;3807;49.030;8.714;2023-07-09T00:35:43;4.80;;;2.90;;
7531;SDS011;3807;49.030;8.714;2023-07-09T00:38:17;5.87;;;3.12;;
7531;SDS011;3807;49.030;8.714;2023-07-09T00:40:47;10.13;;;3.33;;
7531;SDS011;3807;49.030;8.714;2023-07-09T00:43:24;4.22;;;3.33;;
7531;SDS011;3807;49.030;8.714;2023-07-09T00:48:56;8.05;;;3.05;;
7531;SDS011;3807;49.030;8.714;2023-07-09T00:51:25;8.35;;;3.30;;
7531;SDS011;3807;49.030;8.714;2023-07-09T00:53:53;5.03;;;3.15;;
7531;SDS011;3807;49.030;8.714;2023-07-09T00:56:29;4.62;;;3.28;;
7531;SDS011;3807;49.030;8.714;2023-07-09T00:58:59;6.47;;;3.22;;
7531;SDS011;3807;49.030;8.714;2023-07-09T01:01:30;7.65;;;3.40;;
7531;SDS011;3807;49.030;8.714;2023-07-09T01:03:57;4.50;;;3.25;;
7531;SDS011;3807;49.030;8.714;2023-07-09T01:06:31;8.45;;;3.70;;
7531;SDS011;3807;49.030;8.714;2023-07-09T01:09:01;4.18;;;3.03;;
7531;SDS011;3807;49.030;8.714;2023-07-09T01:11:28;6.32;;;3.85;;
7531;SDS011;3807;49.030;8.714;2023-07-09T01:13:55;8.98;;;4.03;;
7531;SDS011;3807;49.030;8.714;2023-07-09T01:16:30;3.95;;;2.78;;
7531;SDS011;3807;49.030;8.714;2023-07-09T01:19:02;4.55;;;3.05;;
7531;SDS011;3807;49.030;8.714;2023-07-09T01:21:29;5.75;;;3.58;;
7531;SDS011;3807;49.030;8.714;2023-07-09T01:23:56;8.07;;;3.20;;
7531;SDS011;3807;49.030;8.714;2023-07-09T01:26:23;5.12;;;3.22;;
7531;SDS011;3807;49.030;8.714;2023-07-09T01:28:52;3.78;;;3.08;;
7531;SDS011;3807;49.030;8.714;2023-07-09T01:31:18;6.85;;;3.75;;
7531;SDS011;3807;49.030;8.714;2023-07-09T01:33:45;4.53;;;2.87;;
7531;SDS011;3807;49.030;8.714;2023-07-09T01:36:12;8.75;;;3.40;;
7531;SDS011;3807;49.030;8.714;2023-07-09T01:38:41;6.03;;;3.42;;
7531;SDS011;3807;49.030;8.714;2023-07-09T01:41:07;6.32;;;3.47;;
7531;SDS011;3807;49.030;8.714;2023-07-09T01:43:33;6.07;;;3.45;;
7531;SDS011;3807;49.030;8.714;2023-07-09T01:45:59;4.32;;;3.22;;
7531;SDS011;3807;49.030;8.714;2023-07-09T01:48:25;5.18;;;3.15;;
7531;SDS011;3807;49.030;8.714;2023-07-09T01:50:51;6.25;;;3.25;;
7531;SDS011;3807;49.030;8.714;2023-07-09T01:53:19;7.70;;;3.90;;
7531;SDS011;3807;49.030;8.714;2023-07-09T01:55:48;4.57;;;3.10;;
7531;SDS011;3807;49.030;8.714;2023-07-09T01:58:14;8.48;;;3.28;;
7531;SDS011;3807;49.030;8.714;2023-07-09T02:00:41;4.90;;;3.35;;
7531;SDS011;3807;49.030;8.714;2023-07-09T02:03:06;7.12;;;3.08;;
7531;SDS011;3807;49.030;8.714;2023-07-09T02:05:32;8.02;;;3.72;;
7531;SDS011;3807;49.030;8.714;2023-07-09T02:07:58;6.97;;;3.40;;
7531;SDS011;3807;49.030;8.714;2023-07-09T02:10:24;6.18;;;4.03;;
7531;SDS011;3807;49.030;8.714;2023-07-09T02:12:50;4.60;;;2.87;;
7531;SDS011;3807;49.030;8.714;2023-07-09T02:15:16;8.70;;;3.25;;
7531;SDS011;3807;49.030;8.714;2023-07-09T02:17:41;7.47;;;3.75;;
7531;SDS011;3807;49.030;8.714;2023-07-09T02:20:08;7.57;;;3.58;;
7531;SDS011;3807;49.030;8.714;2023-07-09T02:22:35;4.72;;;3.35;;
7531;SDS011;3807;49.030;8.714;2023-07-09T02:25:01;5.37;;;3.33;;
7531;SDS011;3807;49.030;8.714;2023-07-09T02:27:27;9.40;;;3.28;;
7531;SDS011;3807;49.030;8.714;2023-07-09T02:29:53;7.30;;;3.42;;
7531;SDS011;3807;49.030;8.714;2023-07-09T02:32:20;6.25;;;3.87;;
7531;SDS011;3807;49.030;8.714;2023-07-09T02:34:54;5.95;;;3.83;;
7531;SDS011;3807;49.030;8.714;2023-07-09T02:37:20;4.82;;;3.45;;
7531;SDS011;3807;49.030;8.714;2023-07-09T02:39:48;7.62;;;3.60;;
7531;SDS011;3807;49.030;8.714;2023-07-09T02:42:15;8.65;;;4.20;;
7531;SDS011;3807;49.030;8.714;2023-07-09T02:44:42;6.75;;;3.87;;
7531;SDS011;3807;49.030;8.714;2023-07-09T02:47:08;6.18;;;3.53;;
7531;SDS011;3807;49.030;8.714;2023-07-09T02:49:35;5.60;;;3.75;;
7531;SDS011;3807;49.030;8.714;2023-07-09T02:52:00;7.90;;;4.22;;
7531;SDS011;3807;49.030;8.714;2023-07-09T02:54:26;6.32;;;3.67;;
7531;SDS011;3807;49.030;8.714;2023-07-09T02:56:51;7.32;;;3.83;;
7531;SDS011;3807;49.030;8.714;2023-07-09T02:59:17;5.45;;;3.53;;
7531;SDS011;3807;49.030;8.714;2023-07-09T03:01:42;9.05;;;5.22;;
7531;SDS011;3807;49.030;8.714;2023-07-09T03:04:08;8.07;;;3.70;;
7531;SDS011;3807;49.030;8.714;2023-07-09T03:06:34;7.32;;;3.65;;
7531;SDS011;3807;49.030;8.714;2023-07-09T03:09:03;5.45;;;3.65;;
7531;SDS011;3807;49.030;8.714;2023-07-09T03:11:30;4.55;;;3.42;;
7531;SDS011;3807;49.030;8.714;2023-07-09T03:13:57;6.37;;;3.42;;
7531;SDS011;3807;49.030;8.714;2023-07-09T03:16:23;6.55;;;3.40;;
7531;SDS011;3807;49.030;8.714;2023-07-09T03:18:51;5.05;;;3.53;;
7531;SDS011;3807;49.030;8.714;2023-07-09T03:21:16;5.60;;;3.70;;
7531;SDS011;3807;49.030;8.714;2023-07-09T03:23:41;8.05;;;4.40;;
7531;SDS011;3807;49.030;8.714;2023-07-09T03:26:07;5.78;;;3.72;;
7531;SDS011;3807;49.030;8.714;2023-07-09T03:28:32;6.00;;;3.62;;
7531;SDS011;3807;49.030;8.714;2023-07-09T03:30:58;7.03;;;3.53;;
7531;SDS011;3807;49.030;8.714;2023-07-09T03:33:24;6.18;;;3.65;;
7531;SDS011;3807;49.030;8.714;2023-07-09T03:35:50;5.62;;;3.28;;
7531;SDS011;3807;49.030;8.714;2023-07-09T03:38:16;4.87;;;3.40;;
7531;SDS011;3807;49.030;8.714;2023-07-09T03:40:42;5.82;;;3.65;;
7531;SDS011;3807;49.030;8.714;2023-07-09T03:43:08;5.40;;;3.42;;
7531;SDS011;3807;49.030;8.714;2023-07-09T03:45:35;10.85;;;4.97;;
7531;SDS011;3807;49.030;8.714;2023-07-09T03:48:02;5.07;;;3.83;;
7531;SDS011;3807;49.030;8.714;2023-07-09T03:50:28;4.25;;;3.15;;
7531;SDS011;3807;49.030;8.714;2023-07-09T03:52:53;5.85;;;3.87;;
7531;SDS011;3807;49.030;8.714;2023-07-09T03:55:19;6.53;;;4.65;;
7531;SDS011;3807;49.030;8.714;2023-07-09T03:57:44;5.30;;;3.90;;
7531;SDS011;3807;49.030;8.714;2023-07-09T04:00:10;5.30;;;3.95;;
7531;SDS011;3807;49.030;8.714;2023-07-09T04:02:37;8.20;;;4.47;;
7531;SDS011;3807;49.030;8.714;2023-07-09T04:05:06;6.12;;;3.78;;
7531;SDS011;3807;49.030;8.714;2023-07-09T04:07:33;6.62;;;4.00;;
7531;SDS011;3807;49.030;8.714;2023-07-09T04:09:59;7.68;;;4.12;;
7531;SDS011;3807;49.030;8.714;2023-07-09T04:12:24;5.00;;;3.53;;
7531;SDS011;3807;49.030;8.714;2023-07-09T04:14:49;6.82;;;3.95;;
7531;SDS011;3807;49.030;8.714;2023-07-09T04:17:15;8.43;;;4.10;;
7531;SDS011;3807;49.030;8.714;2023-07-09T04:19:40;6.45;;;4.25;;
7531;SDS011;3807;49.030;8.714;2023-07-09T04:22:06;8.18;;;4.30;;
7531;SDS011;3807;49.030;8.714;2023-07-09T04:24:31;6.85;;;3.85;;
7531;SDS011;3807;49.030;8.714;2023-07-09T04:26:58;5.05;;;3.50;;
7531;SDS011;3807;49.030;8.714;2023-07-09T04:29:27;7.12;;;4.18;;
7531;SDS011;3807;49.030;8.714;2023-07-09T04:31:56;6.32;;;3.87;;
7531;SDS011;3807;49.030;8.714;2023-07-09T04:34:21;7.03;;;4.15;;
7531;SDS011;3807;49.030;8.714;2023-07-09T04:36:47;5.70;;;4.07;;
7531;SDS011;3807;49.030;8.714;2023-07-09T04:39:13;7.45;;;4.20;;
7531;SDS011;3807;49.030;8.714;2023-07-09T04:41:39;5.35;;;3.87;;
7531;SDS011;3807;49.030;8.714;2023-07-09T04:44:04;6.18;;;3.95;;
7531;SDS011;3807;49.030;8.714;2023-07-09T04:46:29;9.65;;;4.05;;
7531;SDS011;3807;49.030;8.714;2023-07-09T04:48:54;6.28;;;3.80;;
7531;SDS011;3807;49.030;8.714;2023-07-09T04:51:20;6.65;;;4.07;;
7531;SDS011;3807;49.030;8.714;2023-07-09T04:53:46;6.28;;;4.05;;
7531;SDS011;3807;49.030;8.714;2023-07-09T04:56:11;6.65;;;3.95;;
7531;SDS011;3807;49.030;8.714;2023-07-09T04:58:37;6.93;;;4.45;;
7531;SDS011;3807;49.030;8.714;2023-07-09T05:01:03;6.12;;;3.90;;
7531;SDS011;3807;49.030;8.714;2023-07-09T05:03:28;5.68;;;4.07;;
7531;SDS011;3807;49.030;8.714;2023-07-09T05:05:54;4.97;;;4.03;;
7531;SDS011;3807;49.030;8.714;2023-07-09T05:08:19;9.38;;;4.55;;
7531;SDS011;3807;49.030;8.714;2023-07-09T05:10:45;7.68;;;4.15;;
7531;SDS011;3807;49.030;8.714;2023-07-09T05:13:11;4.90;;;3.72;;
7531;SDS011;3807;49.030;8.714;2023-07-09T05:15:41;9.07;;;4.62;;
7531;SDS011;3807;49.030;8.714;2023-07-09T05:18:09;6.68;;;3.95;;
7531;SDS011;3807;49.030;8.714;2023-07-09T05:20:35;6.55;;;3.97;;
7531;SDS011;3807;49.030;8.714;2023-07-09T05:23:01;5.65;;;3.83;;
7531;SDS011;3807;49.030;8.714;2023-07-09T05:25:26;6.37;;;4.05;;
7531;SDS011;3807;49.030;8.714;2023-07-09T05:27:52;4.68;;;3.92;;
7531;SDS011;3807;49.030;8.714;2023-07-09T05:30:20;5.87;;;3.80;;
7531;SDS011;3807;49.030;8.714;2023-07-09T05:32:46;6.82;;;3.65;;
7531;SDS011;3807;49.030;8.714;2023-07-09T05:35:12;7.45;;;4.65;;
7531;SDS011;3807;49.030;8.714;2023-07-09T05:37:38;7.65;;;3.53;;
7531;SDS011;3807;49.030;8.714;2023-07-09T05:40:04;7.47;;;4.45;;
7531;SDS011;3807;49.030;8.714;2023-07-09T05:42:31;5.40;;;3.70;;
7531;SDS011;3807;49.030;8.714;2023-07-09T05:44:57;7.53;;;4.45;;
7531;SDS011;3807;49.030;8.714;2023-07-09T05:47:22;8.50;;;3.90;;
7531;SDS011;3807;49.030;8.714;2023-07-09T05:49:48;6.82;;;4.03;;
7531;SDS011;3807;49.030;8.714;2023-07-09T05:52:15;5.62;;;3.70;;
7531;SDS011;3807;49.030;8.714;2023-07-09T05:54:45;5.53;;;4.00;;
7531;SDS011;3807;49.030;8.714;2023-07-09T05:57:10;7.18;;;3.80;;
7531;SDS011;3807;49.030;8.714;2023-07-09T05:59:36;5.68;;;4.00;;
7531;SDS011;3807;49.030;8.714;2023-07-09T06:02:02;10.13;;;4.07;;
7531;SDS011;3807;49.030;8.714;2023-07-09T06:04:28;7.30;;;3.40;;
7531;SDS011;3807;49.030;8.714;2023-07-09T06:06:53;6.20;;;3.72;;
7531;SDS011;3807;49.030;8.714;2023-07-09T06:09:19;6.00;;;4.03;;
7531;SDS011;3807;49.030;8.714;2023-07-09T06:11:44;6.53;;;3.72;;
7531;SDS011;3807;49.030;8.714;2023-07-09T06:14:09;6.55;;;3.50;;
7531;SDS011;3807;49.030;8.714;2023-07-09T06:16:35;5.32;;;3.40;;
7531;SDS011;3807;49.030;8.714;2023-07-09T06:19:02;6.50;;;4.00;;
7531;SDS011;3807;49.030;8.714;2023-07-09T06:21:27;5.80;;;3.30;;
7531;SDS011;3807;49.030;8.714;2023-07-09T06:23:53;5.85;;;3.62;;
7531;SDS011;3807;49.030;8.714;2023-07-09T06:26:18;11.30;;;4.12;;
7531;SDS011;3807;49.030;8.714;2023-07-09T06:28:44;9.45;;;3.72;;
7531;SDS011;3807;49.030;8.714;2023-07-09T06:31:10;6.37;;;3.87;;
7531;SDS011;3807;49.030;8.714;2023-07-09T06:33:35;8.40;;;4.47;;
7531;SDS011;3807;49.030;8.714;2023-07-09T06:36:01;6.83;;;3.87;;
7531;SDS011;3807;49.030;8.714;2023-07-09T06:38:27;5.50;;;3.30;;
7531;SDS011;3807;49.030;8.714;2023-07-09T06:40:53;6.10;;;4.12;;
7531;SDS011;3807;49.030;8.714;2023-07-09T06:43:19;5.47;;;3.72;;
7531;SDS011;3807;49.030;8.714;2023-07-09T06:46:07;5.85;;;3.60;;
7531;SDS011;3807;49.030;8.714;2023-07-09T06:48:33;5.45;;;3.55;;
7531;SDS011;3807;49.030;8.714;2023-07-09T06:50:58;7.90;;;3.10;;
7531;SDS011;3807;49.030;8.714;2023-07-09T06:53:25;8.25;;;3.30;;
7531;SDS011;3807;49.030;8.714;2023-07-09T06:55:52;5.22;;;3.58;;
7531;SDS011;3807;49.030;8.714;2023-07-09T06:58:20;4.70;;;3.37;;
7531;SDS011;3807;49.030;8.714;2023-07-09T07:00:50;6.18;;;3.47;;
7531;SDS011;3807;49.030;8.714;2023-07-09T07:03:16;6.87;;;3.80;;
7531;SDS011;3807;49.030;8.714;2023-07-09T07:05:44;6.20;;;3.47;;
7531;SDS011;3807;49.030;8.714;2023-07-09T07:08:12;6.30;;;3.62;;
7531;SDS011;3807;49.030;8.714;2023-07-09T07:10:40;5.18;;;3.85;;
7531;SDS011;3807;49.030;8.714;2023-07-09T07:13:05;10.27;;;4.05;;
7531;SDS011;3807;49.030;8.714;2023-07-09T07:15:31;8.27;;;3.90;;
7531;SDS011;3807;49.030;8.714;2023-07-09T07:17:56;5.62;;;3.58;;
7531;SDS011;3807;49.030;8.714;2023-07-09T07:20:22;5.18;;;3.28;;
7531;SDS011;3807;49.030;8.714;2023-07-09T07:22:48;5.82;;;3.33;;
7531;SDS011;3807;49.030;8.714;2023-07-09T07:25:13;4.35;;;3.33;;
7531;SDS011;3807;49.030;8.714;2023-07-09T07:27:38;4.20;;;3.15;;
7531;SDS011;3807;49.030;8.714;2023-07-09T07:30:04;5.72;;;3.50;;
7531;SDS011;3807;49.030;8.714;2023-07-09T07:32:33;7.32;;;3.28;;
7531;SDS011;3807;49.030;8.714;2023-07-09T07:34:59;5.87;;;3.35;;
7531;SDS011;3807;49.030;8.714;2023-07-09T07:37:24;6.22;;;3.85;;
7531;SDS011;3807;49.030;8.714;2023-07-09T07:39:50;4.80;;;2.92;;
7531;SDS011;3807;49.030;8.714;2023-07-09T07:42:15;6.72;;;3.15;;
7531;SDS011;3807;49.030;8.714;2023-07-09T07:44:41;5.32;;;2.85;;
7531;SDS011;3807;49.030;8.714;2023-07-09T07:47:06;4.65;;;3.30;;
7531;SDS011;3807;49.030;8.714;2023-07-09T07:49:32;6.80;;;3.87;;
7531;SDS011;3807;49.030;8.714;2023-07-09T07:51:57;4.22;;;3.28;;
7531;SDS011;3807;49.030;8.714;2023-07-09T07:54:23;5.97;;;3.12;;
7531;SDS011;3807;49.030;8.714;2023-07-09T07:56:49;4.32;;;2.90;;
7531;SDS011;3807;49.030;8.714;2023-07-09T07:59:14;9.77;;;3.85;;
7531;SDS011;3807;49.030;8.714;2023-07-09T08:01:42;6.18;;;3.37;;
7531;SDS011;3807;49.030;8.714;2023-07-09T08:04:07;6.07;;;3.17;;
7531;SDS011;3807;49.030;8.714;2023-07-09T08:06:33;6.25;;;3.47;;
7531;SDS011;3807;49.030;8.714;2023-07-09T08:08:58;5.50;;;3.12;;
7531;SDS011;3807;49.030;8.714;2023-07-09T08:11:24;5.90;;;3.05;;
7531;SDS011;3807;49.030;8.714;2023-07-09T08:13:49;6.47;;;3.40;;
7531;SDS011;3807;49.030;8.714;2023-07-09T08:16:15;5.28;;;3.15;;
7531;SDS011;3807;49.030;8.714;2023-07-09T08:18:41;5.62;;;3.33;;
7531;SDS011;3807;49.030;8.714;2023-07-09T08:21:06;3.92;;;3.05;;
7531;SDS011;3807;49.030;8.714;2023-07-09T08:23:32;5.70;;;3.35;;
7531;SDS011;3807;49.030;8.714;2023-07-09T08:25:58;5.30;;;3.47;;
7531;SDS011;3807;49.030;8.714;2023-07-09T08:28:25;3.95;;;3.00;;
7531;SDS011;3807;49.030;8.714;2023-07-09T08:30:54;5.22;;;3.17;;
7531;SDS011;3807;49.030;8.714;2023-07-09T08:33:20;4.55;;;2.65;;
7531;SDS011;3807;49.030;8.714;2023-07-09T08:35:50;7.72;;;3.17;;
7531;SDS011;3807;49.030;8.714;2023-07-09T08:38:17;5.87;;;2.80;;
7531;SDS011;3807;49.030;8.714;2023-07-09T08:40:53;4.80;;;3.08;;
7531;SDS011;3807;49.030;8.714;2023-07-09T08:46:15;4.50;;;3.17;;
7531;SDS011;3807;49.030;8.714;2023-07-09T08:48:50;6.53;;;3.15;;
7531;SDS011;3807;49.030;8.714;2023-07-09T08:51:20;4.93;;;3.50;;
7531;SDS011;3807;49.030;8.714;2023-07-09T08:53:55;5.30;;;2.92;;
7531;SDS011;3807;49.030;8.714;2023-07-09T08:56:22;5.50;;;3.28;;
7531;SDS011;3807;49.030;8.714;2023-07-09T08:58:49;5.65;;;3.15;;
7531;SDS011;3807;49.030;8.714;2023-07-09T09:01:18;5.10;;;3.12;;
7531;SDS011;3807;49.030;8.714;2023-07-09T09:03:51;5.50;;;3.00;;
7531;SDS011;3807;49.030;8.714;2023-07-09T09:06:29;8.35;;;3.10;;
7531;SDS011;3807;49.030;8.714;2023-07-09T09:13:56;8.10;;;2.95;;
7531;SDS011;3807;49.030;8.714;2023-07-09T09:16:29;4.15;;;2.87;;
7531;SDS011;3807;49.030;8.714;2023-07-09T09:18:58;4.28;;;2.90;;
7531;SDS011;3807;49.030;8.714;2023-07-09T09:21:26;4.68;;;2.67;;
7531;SDS011;3807;49.030;8.714;2023-07-09T09:23:57;3.55;;;2.65;;
7531;SDS011;3807;49.030;8.714;2023-07-09T09:26:26;4.97;;;2.83;;
7531;SDS011;3807;49.030;8.714;2023-07-09T09:28:56;4.12;;;2.97;;
7531;SDS011;3807;49.030;8.714;2023-07-09T09:31:23;7.05;;;3.20;;
7531;SDS011;3807;49.030;8.714;2023-07-09T09:33:51;5.55;;;3.28;;
7531;SDS011;3807;49.030;8.714;2023-07-09T09:36:19;6.70;;;3.05;;
7531;SDS011;3807;49.030;8.714;2023-07-09T09:38:46;6.78;;;3.05;;
7531;SDS011;3807;49.030;8.714;2023-07-09T09:41:15;4.03;;;2.80;;
7531;SDS011;3807;49.030;8.714;2023-07-09T09:43:43;3.53;;;2.78;;
7531;SDS011;3807;49.030;8.714;2023-07-09T09:46:20;3.72;;;2.47;;
7531;SDS011;3807;49.030;8.714;2023-07-09T09:48:48;5.53;;;2.72;;
7531;SDS011;3807;49.030;8.714;2023-07-09T09:51:15;3.33;;;2.50;;
7531;SDS011;3807;49.030;8.714;2023-07-09T09:53:45;5.05;;;3.15;;
7531;SDS011;3807;49.030;8.714;2023-07-09T09:56:15;4.43;;;2.78;;
7531;SDS011;3807;49.030;8.714;2023-07-09T09:58:45;5.47;;;2.83;;
7531;SDS011;3807;49.030;8.714;2023-07-09T10:01:15;4.93;;;2.83;;
7531;SDS011;3807;49.030;8.714;2023-07-09T10:03:42;4.62;;;2.47;;
7531;SDS011;3807;49.030;8.714;2023-07-09T10:06:15;4.62;;;2.58;;
7531;SDS011;3807;49.030;8.714;2023-07-09T10:11:21;5.93;;;2.33;;
7531;SDS011;3807;49.030;8.714;2023-07-09T10:13:59;5.50;;;2.80;;
7531;SDS011;3807;49.030;8.714;2023-07-09T10:16:32;5.60;;;2.72;;
7531;SDS011;3807;49.030;8.714;2023-07-09T10:19:13;5.10;;;2.83;;
7531;SDS011;3807;49.030;8.714;2023-07-09T10:22:03;6.75;;;2.67;;
7531;SDS011;3807;49.030;8.714;2023-07-09T10:24:42;4.05;;;2.55;;
7531;SDS011;3807;49.030;8.714;2023-07-09T10:27:44;3.42;;;2.47;;
7531;SDS011;3807;49.030;8.714;2023-07-09T10:30:33;4.82;;;2.17;;
7531;SDS011;3807;49.030;8.714;2023-07-09T10:33:28;3.62;;;2.17;;
7531;SDS011;3807;49.030;8.714;2023-07-09T10:36:30;4.78;;;2.70;;
7531;SDS011;3807;49.030;8.714;2023-07-09T10:39:20;3.28;;;2.60;;
7531;SDS011;3807;49.030;8.714;2023-07-09T10:41:51;4.60;;;2.53;;
7531;SDS011;3807;49.030;8.714;2023-07-09T10:44:29;6.75;;;2.53;;
7531;SDS011;3807;49.030;8.714;2023-07-09T10:47:00;5.97;;;2.40;;
7531;SDS011;3807;49.030;8.714;2023-07-09T10:49:30;4.37;;;2.30;;
7531;SDS011;3807;49.030;8.714;2023-07-09T10:57:30;3.62;;;2.58;;
7531;SDS011;3807;49.030;8.714;2023-07-09T11:00:04;5.22;;;2.12;;
7531;SDS011;3807;49.030;8.714;2023-07-09T11:02:35;6.10;;;2.55;;
7531;SDS011;3807;49.030;8.714;2023-07-09T11:05:06;4.65;;;2.50;;
7531;SDS011;3807;49.030;8.714;2023-07-09T11:10:45;4.65;;;2.50;;
7531;SDS011;3807;49.030;8.714;2023-07-09T11:13:21;5.55;;;2.55;;
7531;SDS011;3807;49.030;8.714;2023-07-09T11:15:54;4.75;;;2.95;;
7531;SDS011;3807;49.030;8.714;2023-07-09T11:18:22;3.17;;;2.67;;
7531;SDS011;3807;49.030;8.714;2023-07-09T11:20:55;5.55;;;3.17;;
7531;SDS011;3807;49.030;8.714;2023-07-09T11:23:25;6.78;;;2.78;;
7531;SDS011;3807;49.030;8.714;2023-07-09T11:26:01;5.62;;;2.67;;
7531;SDS011;3807;49.030;8.714;2023-07-09T11:31:40;6.43;;;3.40;;
7531;SDS011;3807;49.030;8.714;2023-07-09T11:36:57;5.03;;;3.33;;
7531;SDS011;3807;49.030;8.714;2023-07-09T11:39:28;4.82;;;2.60;;
7531;SDS011;3807;49.030;8.714;2023-07-09T11:42:03;5.20;;;3.45;;
7531;SDS011;3807;49.030;8.714;2023-07-09T11:44:48;4.90;;;2.75;;
7531;SDS011;3807;49.030;8.714;2023-07-09T11:50:02;6.35;;;2.70;;
7531;SDS011;3807;49.030;8.714;2023-07-09T11:52:39;4.47;;;2.50;;
7531;SDS011;3807;49.030;8.714;2023-07-09T11:58:08;4.37;;;2.58;;
7531;SDS011;3807;49.030;8.714;2023-07-09T12:00:40;5.87;;;2.75;;
7531;SDS011;3807;49.030;8.714;2023-07-09T12:03:10;4.68;;;2.47;;
7531;SDS011;3807;49.030;8.714;2023-07-09T12:05:51;3.47;;;2.47;;
7531;SDS011;3807;49.030;8.714;2023-07-09T12:11:19;5.00;;;3.22;;
7531;SDS011;3807;49.030;8.714;2023-07-09T12:13:54;3.58;;;2.70;;
7531;SDS011;3807;49.030;8.714;2023-07-09T12:16:27;4.05;;;2.70;;
7531;SDS011;3807;49.030;8.714;2023-07-09T12:18:54;5.82;;;2.70;;
7531;SDS011;3807;49.030;8.714;2023-07-09T12:21:19;5.75;;;3.20;;
7531;SDS011;3807;49.030;8.714;2023-07-09T12:23:45;5.75;;;2.80;;
7531;SDS011;3807;49.030;8.714;2023-07-09T12:26:16;5.85;;;2.65;;
7531;SDS011;3807;49.030;8.714;2023-07-09T12:28:49;5.25;;;2.70;;
7531;SDS011;3807;49.030;8.714;2023-07-09T12:31:16;3.45;;;2.37;;
7531;SDS011;3807;49.030;8.714;2023-07-09T12:33:48;4.75;;;2.50;;
7531;SDS011;3807;49.030;8.714;2023-07-09T12:36:17;4.93;;;3.00;;
7531;SDS011;3807;49.030;8.714;2023-07-09T12:38:45;4.30;;;2.60;;
7531;SDS011;3807;49.030;8.714;2023-07-09T12:41:16;5.55;;;2.40;;
7531;SDS011;3807;49.030;8.714;2023-07-09T12:43:48;4.95;;;2.55;;
7531;SDS011;3807;49.030;8.714;2023-07-09T12:46:14;4.12;;;2.58;;
7531;SDS011;3807;49.030;8.714;2023-07-09T12:48:40;5.53;;;2.85;;
7531;SDS011;3807;49.030;8.714;2023-07-09T12:51:08;4.20;;;2.70;;
7531;SDS011;3807;49.030;8.714;2023-07-09T12:53:35;5.57;;;3.05;;
7531;SDS011;3807;49.030;8.714;2023-07-09T12:56:02;4.35;;;2.67;;
7531;SDS011;3807;49.030;8.714;2023-07-09T12:58:32;5.22;;;2.65;;
7531;SDS011;3807;49.030;8.714;2023-07-09T13:01:04;3.60;;;2.60;;
7531;SDS011;3807;49.030;8.714;2023-07-09T13:03:32;4.47;;;2.70;;
7531;SDS011;3807;49.030;8.714;2023-07-09T13:05:59;4.37;;;2.60;;
7531;SDS011;3807;49.030;8.714;2023-07-09T13:08:27;7.15;;;2.45;;
7531;SDS011;3807;49.030;8.714;2023-07-09T13:10:55;7.82;;;3.22;;
7531;SDS011;3807;49.030;8.714;2023-07-09T13:13:21;5.95;;;2.53;;
7531;SDS011;3807;49.030;8.714;2023-07-09T13:15:52;8.48;;;2.72;;
7531;SDS011;3807;49.030;8.714;2023-07-09T13:18:22;3.65;;;2.40;;
7531;SDS011;3807;49.030;8.714;2023-07-09T13:20:48;5.93;;;2.58;;
7531;SDS011;3807;49.030;8.714;2023-07-09T13:25:41;6.25;;;3.22;;
7531;SDS011;3807;49.030;8.714;2023-07-09T13:28:26;4.32;;;3.05;;
7531;SDS011;3807;49.030;8.714;2023-07-09T13:31:00;4.43;;;2.67;;
7531;SDS011;3807;49.030;8.714;2023-07-09T13:33:32;5.70;;;3.20;;
7531;SDS011;3807;49.030;8.714;2023-07-09T13:35:58;3.87;;;2.30;;
7531;SDS011;3807;49.030;8.714;2023-07-09T13:38:23;4.00;;;2.65;;
7531;SDS011;3807;49.030;8.714;2023-07-09T13:40:51;6.78;;;2.85;;
7531;SDS011;3807;49.030;8.714;2023-07-09T13:43:23;5.82;;;3.10;;
7531;SDS011;3807;49.030;8.714;2023-07-09T13:45:55;5.07;;;2.60;;
7531;SDS011;3807;49.030;8.714;2023-07-09T13:48:21;4.60;;;2.87;;
7531;SDS011;3807;49.030;8.714;2023-07-09T13:50:48;5.90;;;2.50;;
7531;SDS011;3807;49.030;8.714;2023-07-09T13:53:17;4.53;;;3.20;;
7531;SDS011;3807;49.030;8.714;2023-07-09T13:55:44;7.50;;;2.65;;
7531;SDS011;3807;49.030;8.714;2023-07-09T13:58:14;4.55;;;2.60;;
7531;SDS011;3807;49.030;8.714;2023-07-09T14:00:41;4.90;;;3.00;;
7531;SDS011;3807;49.030;8.714;2023-07-09T14:03:13;5.68;;;2.60;;
7531;SDS011;3807;49.030;8.714;2023-07-09T14:05:40;4.47;;;2.67;;
7531;SDS011;3807;49.030;8.714;2023-07-09T14:08:07;5.65;;;3.12;;
7531;SDS011;3807;49.030;8.714;2023-07-09T14:10:33;4.32;;;2.78;;
7531;SDS011;3807;49.030;8.714;2023-07-09T14:12:59;4.43;;;3.15;;
7531;SDS011;3807;49.030;8.714;2023-07-09T14:15:27;4.82;;;2.80;;
7531;SDS011;3807;49.030;8.714;2023-07-09T14:17:53;4.12;;;2.70;;
7531;SDS011;3807;49.030;8.714;2023-07-09T14:20:20;5.03;;;2.60;;
7531;SDS011;3807;49.030;8.714;2023-07-09T14:22:46;5.45;;;2.80;;
7531;SDS011;3807;49.030;8.714;2023-07-09T14:25:23;4.03;;;2.80;;
7531;SDS011;3807;49.030;8.714;2023-07-09T14:27:50;3.67;;;2.53;;
7531;SDS011;3807;49.030;8.714;2023-07-09T14:30:17;4.70;;;2.67;;
7531;SDS011;3807;49.030;8.714;2023-07-09T14:32:46;6.60;;;2.72;;
7531;SDS011;3807;49.030;8.714;2023-07-09T14:35:20;6.53;;;3.30;;
7531;SDS011;3807;49.030;8.714;2023-07-09T14:37:48;4.15;;;2.78;;
7531;SDS011;3807;49.030;8.714;2023-07-09T14:40:15;5.00;;;2.92;;
7531;SDS011;3807;49.030;8.714;2023-07-09T14:42:42;4.30;;;2.70;;
7531;SDS011;3807;49.030;8.714;2023-07-09T14:45:16;6.05;;;3.08;;
7531;SDS011;3807;49.030;8.714;2023-07-09T14:47:49;5.07;;;2.87;;
7531;SDS011;3807;49.030;8.714;2023-07-09T14:50:16;4.72;;;2.92;;
7531;SDS011;3807;49.030;8.714;2023-07-09T14:52:43;6.57;;;3.05;;
7531;SDS011;3807;49.030;8.714;2023-07-09T14:55:16;3.95;;;2.83;;
7531;SDS011;3807;49.030;8.714;2023-07-09T14:57:44;4.32;;;2.62;;
7531;SDS011;3807;49.030;8.714;2023-07-09T15:00:14;7.68;;;2.90;;
7531;SDS011;3807;49.030;8.714;2023-07-09T15:02:41;5.15;;;2.80;;
7531;SDS011;3807;49.030;8.714;2023-07-09T15:05:12;4.28;;;2.47;;
7531;SDS011;3807;49.030;8.714;2023-07-09T15:07:42;4.65;;;2.78;;
7531;SDS011;3807;49.030;8.714;2023-07-09T15:10:12;3.83;;;2.87;;
7531;SDS011;3807;49.030;8.714;2023-07-09T15:12:39;6.30;;;2.92;;
7531;SDS011;3807;49.030;8.714;2023-07-09T15:15:16;5.10;;;2.95;;
7531;SDS011;3807;49.030;8.714;2023-07-09T15:17:45;5.95;;;2.92;;
7531;SDS011;3807;49.030;8.714;2023-07-09T15:20:14;7.03;;;3.10;;
7531;SDS011;3807;49.030;8.714;2023-07-09T15:22:40;5.35;;;2.55;;
7531;SDS011;3807;49.030;8.714;2023-07-09T15:25:11;5.18;;;2.60;;
7531;SDS011;3807;49.030;8.714;2023-07-09T15:27:39;6.22;;;3.03;;
7531;SDS011;3807;49.030;8.714;2023-07-09T15:30:12;6.05;;;2.58;;
7531;SDS011;3807;49.030;8.714;2023-07-09T15:32:39;3.58;;;2.78;;
7531;SDS011;3807;49.030;8.714;2023-07-09T15:35:04;4.30;;;2.53;;
7531;SDS011;3807;49.030;8.714;2023-07-09T15:37:30;4.53;;;2.95;;
7531;SDS011;3807;49.030;8.714;2023-07-09T15:39:55;5.68;;;2.75;;
7531;SDS011;3807;49.030;8.714;2023-07-09T15:42:20;7.03;;;2.70;;
7531;SDS011;3807;49.030;8.714;2023-07-09T15:44:46;3.70;;;2.30;;
7531;SDS011;3807;49.030;8.714;2023-07-09T15:47:26;4.53;;;2.80;;
7531;SDS011;3807;49.030;8.714;2023-07-09T15:49:53;5.95;;;3.00;;
7531;SDS011;3807;49.030;8.714;2023-07-09T15:52:18;6.25;;;2.70;;
7531;SDS011;3807;49.030;8.714;2023-07-09T15:54:43;4.03;;;2.60;;
7531;SDS011;3807;49.030;8.714;2023-07-09T15:57:11;4.50;;;2.60;;
7531;SDS011;3807;49.030;8.714;2023-07-09T15:59:39;5.25;;;2.80;;
7531;SDS011;3807;49.030;8.714;2023-07-09T16:02:12;5.90;;;3.12;;